createdAt,value
2023-04-15T00:00:39.563Z,100226.13
2023-04-15T00:01:42.841Z,100222.88
2023-04-15T00:02:49.108Z,100230.56
2023-04-15T00:03:53.118Z,100240.30
2023-04-15T00:04:56.382Z,100226.97
2023-04-15T00:06:00.305Z,100227.36
2023-04-15T00:07:04.236Z,100243.28
2023-04-15T00:08:07.439Z,100239.66
2023-04-15T00:09:10.833Z,100232.98
2023-04-15T00:10:15.401Z,100236.95
2023-04-15T00:11:19.326Z,100239.22
2023-04-15T00:12:23.747Z,100237.36
2023-04-15T00:13:26.926Z,100240.00
2023-04-15T00:14:29.504Z,100240.73
2023-04-15T00:15:33.492Z,100239.42
2023-04-15T00:16:37.200Z,100242.24
2023-04-15T00:17:40.502Z,100237.53
2023-04-15T00:18:44.465Z,100238.80
2023-04-15T00:19:47.239Z,100228.21
2023-04-15T00:20:53.238Z,100234.27
2023-04-15T00:21:58.139Z,100227.86
2023-04-15T00:23:02.209Z,100227.59
2023-04-15T00:24:06.488Z,100223.70
2023-04-15T00:25:13.642Z,100226.80
2023-04-15T00:26:17.794Z,100237.05
2023-04-15T00:27:24.337Z,100226.50
2023-04-15T00:28:29.718Z,100231.03
2023-04-15T00:29:34.659Z,100222.97
2023-04-15T00:30:37.999Z,100222.70
2023-04-15T00:31:42.183Z,100213.95
2023-04-15T00:32:45.399Z,100217.92
2023-04-15T00:33:51.904Z,100220.14
2023-04-15T00:34:55.098Z,100214.03
2023-04-15T00:35:58.292Z,100228.73
2023-04-15T00:37:00.541Z,100217.77
2023-04-15T00:38:03.642Z,100219.20
2023-04-15T00:39:06.840Z,100210.06
2023-04-15T00:40:12.253Z,100216.65
2023-04-15T00:41:16.753Z,100217.86
2023-04-15T00:42:22.023Z,100215.50
2023-04-15T00:43:26.716Z,100219.56
2023-04-15T00:44:28.942Z,100222.58
2023-04-15T00:45:34.169Z,100220.42
2023-04-15T00:46:38.983Z,100216.44
2023-04-15T00:47:43.496Z,100215.03
2023-04-15T00:48:46.847Z,100227.11
2023-04-15T00:49:50.024Z,100232.70
2023-04-15T00:50:55.208Z,100232.88
2023-04-15T00:52:00.960Z,100234.53
2023-04-15T00:53:04.365Z,100231.71
2023-04-15T00:54:08.302Z,100233.36
2023-04-15T00:55:13.671Z,100227.72
2023-04-15T00:56:18.301Z,100222.78
2023-04-15T00:57:21.843Z,100224.80
2023-04-15T00:58:25.500Z,100226.38
2023-04-15T00:59:29.513Z,100235.12
2023-04-15T01:00:32.911Z,100221.59
2023-04-15T01:01:36.145Z,100228.13
2023-04-15T01:02:40.268Z,100221.22
2023-04-15T01:03:44.599Z,100224.15
2023-04-15T01:04:49.771Z,100224.38
2023-04-15T01:05:55.020Z,100227.64
2023-04-15T01:06:57.285Z,100232.31
2023-04-15T01:08:00.501Z,100223.78
2023-04-15T01:09:03.587Z,100218.26
2023-04-15T01:10:08.665Z,100223.31
2023-04-15T01:11:13.485Z,100220.38
2023-04-15T01:12:18.673Z,100219.81
2023-04-15T01:13:21.748Z,100225.69
2023-04-15T01:14:26.272Z,100219.11
2023-04-15T01:15:29.278Z,100227.67
2023-04-15T01:16:32.593Z,100229.95
2023-04-15T01:17:37.584Z,100230.73
2023-04-15T01:18:42.114Z,100224.73
2023-04-15T01:19:45.503Z,100227.13
2023-04-15T01:20:48.802Z,100233.50
2023-04-15T01:21:51.463Z,100235.12
2023-04-15T01:22:55.410Z,100230.02
2023-04-15T01:24:00.272Z,100238.45
2023-04-15T01:25:08.971Z,100246.14
2023-04-15T01:26:12.724Z,100238.96
2023-04-15T01:27:15.470Z,100248.27
2023-04-15T01:28:19.393Z,100249.05
2023-04-15T01:29:27.389Z,100249.46
2023-04-15T01:30:32.353Z,100238.81
2023-04-15T01:31:36.187Z,100243.08
2023-04-15T01:32:40.981Z,100243.06
2023-04-15T01:33:44.920Z,100236.60
2023-04-15T01:34:50.092Z,100239.56
2023-04-15T01:35:58.548Z,100252.08
2023-04-15T01:37:01.635Z,100244.91
2023-04-15T01:38:06.395Z,100249.61
2023-04-15T01:39:11.268Z,100251.18
2023-04-15T01:40:14.290Z,100258.09
2023-04-15T01:41:19.731Z,100250.61
2023-04-15T01:42:23.340Z,100249.55
2023-04-15T01:43:30.476Z,100244.19
2023-04-15T01:44:35.576Z,100241.61
2023-04-15T01:45:39.694Z,100238.56
2023-04-15T01:46:43.436Z,100241.63
2023-04-15T01:47:47.264Z,100241.20
2023-04-15T01:48:50.640Z,100246.91
2023-04-15T01:49:53.302Z,100243.70
2023-04-15T01:50:58.907Z,100241.55
2023-04-15T01:52:03.339Z,100246.06
2023-04-15T01:53:09.550Z,100243.69
2023-04-15T01:54:13.077Z,100246.83
2023-04-15T01:55:16.675Z,100250.83
2023-04-15T01:56:21.544Z,100240.69
2023-04-15T01:57:26.206Z,100245.89
2023-04-15T01:58:30.123Z,100247.27
2023-04-15T01:59:33.108Z,100250.08
2023-04-15T02:00:36.870Z,100247.02
2023-04-15T02:01:40.325Z,100252.72
2023-04-15T02:02:43.178Z,100249.29
2023-04-15T02:03:50.695Z,100255.27
2023-04-15T02:04:54.077Z,100256.34
2023-04-15T02:06:01.141Z,100260.89
2023-04-15T02:07:05.410Z,100256.30
2023-04-15T02:08:08.584Z,100256.05
2023-04-15T02:09:14.684Z,100263.44
2023-04-15T02:10:18.026Z,100252.54
2023-04-15T02:11:21.573Z,100267.95
2023-04-15T02:12:25.814Z,100260.47
2023-04-15T02:13:30.263Z,100261.41
2023-04-15T02:14:33.516Z,100268.33
2023-04-15T02:15:37.038Z,100264.23
2023-04-15T02:16:41.358Z,100265.94
2023-04-15T02:17:47.938Z,100264.54
2023-04-15T02:18:53.624Z,100261.72
2023-04-15T02:19:56.540Z,100266.16
2023-04-15T02:21:01.285Z,100270.98
2023-04-15T02:22:04.786Z,100263.98
2023-04-15T02:23:10.887Z,100259.34
2023-04-15T02:24:13.962Z,100265.60
2023-04-15T02:25:18.107Z,100258.40
2023-04-15T02:26:23.245Z,100263.69
2023-04-15T02:27:26.578Z,100270.04
2023-04-15T02:28:29.796Z,100268.13
2023-04-15T02:29:33.703Z,100274.02
2023-04-15T02:30:39.432Z,100268.81
2023-04-15T02:31:42.924Z,100273.16
2023-04-15T02:32:49.578Z,100277.60
2023-04-15T02:33:53.480Z,100272.69
2023-04-15T02:34:56.542Z,100271.63
2023-04-15T02:36:00.183Z,100268.83
2023-04-15T02:37:04.609Z,100279.58
2023-04-15T02:38:08.845Z,100273.88
2023-04-15T02:39:12.874Z,100280.19
2023-04-15T02:40:16.294Z,100280.35
2023-04-15T02:41:20.301Z,100281.56
2023-04-15T02:42:23.726Z,100283.69
2023-04-15T02:43:26.897Z,100289.91
2023-04-15T02:44:31.157Z,100288.73
2023-04-15T02:45:34.976Z,100283.52
2023-04-15T02:46:39.487Z,100285.30
2023-04-15T02:47:43.916Z,100290.27
2023-04-15T02:48:47.436Z,100290.77
2023-04-15T02:49:50.655Z,100288.98
2023-04-15T02:50:54.248Z,100294.18
2023-04-15T02:51:59.832Z,100291.53
2023-04-15T02:53:03.622Z,100287.44
2023-04-15T02:54:07.780Z,100295.20
2023-04-15T02:55:11.509Z,100294.17
2023-04-15T02:56:16.222Z,100295.20
2023-04-15T02:57:18.924Z,100290.51
2023-04-15T02:58:22.434Z,100298.94
2023-04-15T02:59:27.089Z,100299.70
2023-04-15T03:00:30.164Z,100297.51
2023-04-15T03:01:33.200Z,100305.16
2023-04-15T03:02:39.035Z,100295.03
2023-04-15T03:03:42.634Z,100304.67
2023-04-15T03:04:48.794Z,100304.92
2023-04-15T03:05:51.031Z,100303.38
2023-04-15T03:06:55.063Z,100310.29
2023-04-15T03:07:58.969Z,100309.44
2023-04-15T03:09:02.899Z,100300.07
2023-04-15T03:10:08.614Z,100308.34
2023-04-15T03:11:14.450Z,100311.84
2023-04-15T03:12:17.525Z,100304.84
2023-04-15T03:13:22.157Z,100308.17
2023-04-15T03:14:27.754Z,100308.26
2023-04-15T03:15:31.479Z,100301.34
2023-04-15T03:16:34.876Z,100306.98
2023-04-15T03:17:39.144Z,100308.77
2023-04-15T03:18:42.920Z,100309.27
2023-04-15T03:19:46.946Z,100300.84
2023-04-15T03:20:50.469Z,100300.41
2023-04-15T03:21:55.165Z,100309.96
2023-04-15T03:22:58.413Z,100316.02
2023-04-15T03:24:02.215Z,100308.08
2023-04-15T03:25:06.657Z,100311.83
2023-04-15T03:26:12.912Z,100312.28
2023-04-15T03:27:15.438Z,100304.52
2023-04-15T03:28:19.480Z,100311.15
2023-04-15T03:29:25.616Z,100302.45
2023-04-15T03:30:28.996Z,100305.78
2023-04-15T03:31:32.527Z,100309.34
2023-04-15T03:32:36.461Z,100312.17
2023-04-15T03:33:41.611Z,100314.23
2023-04-15T03:34:43.838Z,100306.57
2023-04-15T03:35:49.974Z,100311.84
2023-04-15T03:36:53.120Z,100313.22
2023-04-15T03:37:56.295Z,100298.70
2023-04-15T03:39:00.338Z,100309.80
2023-04-15T03:40:06.177Z,100310.66
2023-04-15T03:41:09.998Z,100301.42
2023-04-15T03:42:14.146Z,100298.77
2023-04-15T03:43:17.623Z,100310.45
2023-04-15T03:44:21.140Z,100310.13
2023-04-15T03:45:23.486Z,100304.67
2023-04-15T03:46:27.554Z,100304.34
2023-04-15T03:47:31.929Z,100307.81
2023-04-15T03:48:38.499Z,100302.55
2023-04-15T03:49:41.067Z,100303.97
2023-04-15T03:50:45.291Z,100306.20
2023-04-15T03:51:50.166Z,100305.85
2023-04-15T03:52:54.400Z,100301.70
2023-04-15T03:53:57.689Z,100301.48
2023-04-15T03:55:02.143Z,100307.30
2023-04-15T03:56:06.381Z,100302.89
2023-04-15T03:57:09.780Z,100303.08
2023-04-15T03:58:14.717Z,100309.86
2023-04-15T03:59:18.042Z,100310.22
2023-04-15T04:00:23.689Z,100310.05
2023-04-15T04:01:27.350Z,100310.38
2023-04-15T04:02:30.605Z,100318.31
2023-04-15T04:03:37.530Z,100313.14
2023-04-15T04:04:42.109Z,100315.25
2023-04-15T04:05:45.642Z,100316.11
2023-04-15T04:06:48.891Z,100317.98
2023-04-15T04:07:52.244Z,100318.97
2023-04-15T04:08:56.716Z,100308.91
2023-04-15T04:09:59.037Z,100316.72
2023-04-15T04:11:02.774Z,100304.87
2023-04-15T04:12:07.899Z,100310.37
2023-04-15T04:13:11.197Z,100305.78
2023-04-15T04:14:14.524Z,100309.55
2023-04-15T04:15:17.943Z,100314.65
2023-04-15T04:16:21.497Z,100316.72
2023-04-15T04:17:24.843Z,100309.86
2023-04-15T04:18:30.068Z,100312.08
2023-04-15T04:19:33.407Z,100313.22
2023-04-15T04:20:40.873Z,100312.37
2023-04-15T04:21:45.847Z,100314.38
2023-04-15T04:22:49.450Z,100308.98
2023-04-15T04:23:53.730Z,100316.83
2023-04-15T04:24:57.794Z,100316.52
2023-04-15T04:25:59.982Z,100319.09
2023-04-15T04:27:03.508Z,100322.11
2023-04-15T04:28:07.809Z,100318.59
2023-04-15T04:29:11.556Z,100320.45
2023-04-15T04:30:14.820Z,100314.89
2023-04-15T04:31:18.017Z,100321.92
2023-04-15T04:32:22.793Z,100322.65
2023-04-15T04:33:26.286Z,100327.36
2023-04-15T04:34:29.388Z,100322.77
2023-04-15T04:35:33.711Z,100322.15
2023-04-15T04:36:38.478Z,100322.73
2023-04-15T04:37:42.707Z,100330.98
2023-04-15T04:38:46.911Z,100330.52
2023-04-15T04:39:50.014Z,100326.95
2023-04-15T04:40:54.382Z,100327.06
2023-04-15T04:41:57.677Z,100330.78
2023-04-15T04:43:00.001Z,100330.02
2023-04-15T04:44:03.096Z,100323.58
2023-04-15T04:45:07.855Z,100324.80
2023-04-15T04:46:12.715Z,100325.19
2023-04-15T04:47:16.567Z,100328.13
2023-04-15T04:48:20.590Z,100325.97
2023-04-15T04:49:22.920Z,100333.97
2023-04-15T04:50:26.959Z,100335.49
2023-04-15T04:51:30.565Z,100329.78
2023-04-15T04:52:32.817Z,100329.88
2023-04-15T04:53:38.080Z,100335.16
2023-04-15T04:54:41.709Z,100332.30
2023-04-15T04:55:44.995Z,100332.96
2023-04-15T04:56:48.214Z,100329.10
2023-04-15T04:57:51.178Z,100319.16
2023-04-15T04:58:58.353Z,100328.30
2023-04-15T05:00:03.520Z,100330.20
2023-04-15T05:01:07.384Z,100337.39
2023-04-15T05:02:09.868Z,100329.73
2023-04-15T05:03:13.661Z,100336.61
2023-04-15T05:04:18.271Z,100326.36
2023-04-15T05:05:22.082Z,100333.55
2023-04-15T05:06:26.348Z,100334.95
2023-04-15T05:07:29.209Z,100333.59
2023-04-15T05:08:32.315Z,100336.45
2023-04-15T05:09:37.973Z,100340.86
2023-04-15T05:11:47.810Z,100335.52
2023-04-15T05:12:53.796Z,100341.05
2023-04-15T05:13:56.295Z,100335.13
2023-04-15T05:14:59.426Z,100339.10
2023-04-15T05:16:02.713Z,100333.73
2023-04-15T05:17:06.384Z,100343.56
2023-04-15T05:18:09.597Z,100342.52
2023-04-15T05:19:14.376Z,100336.16
2023-04-15T05:20:20.347Z,100344.59
2023-04-15T05:21:23.945Z,100342.40
2023-04-15T05:22:27.566Z,100333.68
2023-04-15T05:23:31.397Z,100334.63
2023-04-15T05:24:35.547Z,100340.61
2023-04-15T05:25:39.960Z,100337.17
2023-04-15T05:26:43.370Z,100337.93
2023-04-15T05:27:50.228Z,100336.30
2023-04-15T05:28:52.757Z,100341.05
2023-04-15T05:29:56.152Z,100330.40
2023-04-15T05:30:59.768Z,100335.28
2023-04-15T05:32:04.543Z,100342.06
2023-04-15T05:33:07.014Z,100346.09
2023-04-15T05:34:09.991Z,100332.96
2023-04-15T05:35:13.386Z,100340.08
2023-04-15T05:36:16.694Z,100343.14
2023-04-15T05:37:23.084Z,100338.64
2023-04-15T05:38:26.721Z,100340.12
2023-04-15T05:39:30.110Z,100340.47
2023-04-15T05:40:33.987Z,100342.06
2023-04-15T05:41:37.239Z,100350.98
2023-04-15T05:42:39.493Z,100345.43
2023-04-15T05:43:42.772Z,100349.20
2023-04-15T05:44:45.642Z,100347.67
2023-04-15T05:45:48.833Z,100349.59
2023-04-15T05:46:52.462Z,100351.19
2023-04-15T05:47:57.860Z,100357.09
2023-04-15T05:49:01.497Z,100340.50
2023-04-15T05:50:05.526Z,100352.00
2023-04-15T05:51:09.043Z,100356.86
2023-04-15T05:52:11.867Z,100356.48
2023-04-15T05:53:15.395Z,100362.34
2023-04-15T05:54:22.415Z,100354.00
2023-04-15T05:55:27.497Z,100355.02
2023-04-15T05:56:31.527Z,100358.08
2023-04-15T05:57:34.788Z,100356.38
2023-04-15T05:58:38.113Z,100349.55
2023-04-15T05:59:42.687Z,100359.20
2023-04-15T06:00:47.327Z,100357.55
2023-04-15T06:01:52.714Z,100359.34
2023-04-15T06:02:58.118Z,100357.45
2023-04-15T06:04:02.198Z,100355.67
2023-04-15T06:05:07.759Z,100352.45
2023-04-15T06:06:11.218Z,100359.77
2023-04-15T06:07:14.613Z,100354.95
2023-04-15T06:08:18.272Z,100357.33
2023-04-15T06:09:21.629Z,100356.27
2023-04-15T06:10:25.787Z,100356.73
2023-04-15T06:11:29.586Z,100349.27
2023-04-15T06:12:32.978Z,100356.27
2023-04-15T06:13:35.536Z,100353.39
2023-04-15T06:14:39.629Z,100350.15
2023-04-15T06:15:42.752Z,100351.27
2023-04-15T06:16:45.944Z,100352.55
2023-04-15T06:17:49.176Z,100361.36
2023-04-15T06:18:51.601Z,100350.69
2023-04-15T06:19:57.455Z,100362.96
2023-04-15T06:21:01.021Z,100359.73
2023-04-15T06:22:04.840Z,100351.29
2023-04-15T06:23:08.240Z,100358.52
2023-04-15T06:24:13.452Z,100358.06
2023-04-15T06:25:18.798Z,100352.80
2023-04-15T06:26:21.980Z,100357.94
2023-04-15T06:27:26.196Z,100365.55
2023-04-15T06:28:28.821Z,100358.45
2023-04-15T06:29:31.985Z,100363.27
2023-04-15T06:30:35.587Z,100366.01
2023-04-15T06:31:38.823Z,100371.17
2023-04-15T06:32:42.891Z,100371.25
2023-04-15T06:33:47.465Z,100364.32
2023-04-15T06:34:50.603Z,100367.62
2023-04-15T06:35:54.044Z,100369.05
2023-04-15T06:36:57.144Z,100369.17
2023-04-15T06:38:00.362Z,100373.61
2023-04-15T06:39:05.708Z,100373.92
2023-04-15T06:40:11.528Z,100376.34
2023-04-15T06:41:35.811Z,100374.12
2023-04-15T06:42:39.214Z,100373.96
2023-04-15T06:43:42.915Z,100383.66
2023-04-15T06:44:46.004Z,100379.89
2023-04-15T06:45:50.197Z,100374.89
2023-04-15T06:46:53.649Z,100376.53
2023-04-15T06:47:56.056Z,100374.48
2023-04-15T06:48:59.041Z,100376.11
2023-04-15T06:50:02.224Z,100379.84
2023-04-15T06:51:04.638Z,100374.25
2023-04-15T06:52:07.886Z,100381.22
2023-04-15T06:53:11.335Z,100377.83
2023-04-15T06:54:13.887Z,100387.11
2023-04-15T06:55:18.373Z,100393.05
2023-04-15T06:56:23.002Z,100389.50
2023-04-15T06:57:26.435Z,100388.22
2023-04-15T06:58:28.892Z,100391.60
2023-04-15T06:59:32.396Z,100391.77
2023-04-15T07:00:36.406Z,100390.71
2023-04-15T07:01:41.569Z,100394.77
2023-04-15T07:02:45.168Z,100395.48
2023-04-15T07:03:47.664Z,100390.61
2023-04-15T07:04:51.682Z,100397.23
2023-04-15T07:05:56.132Z,100395.91
2023-04-15T07:07:00.443Z,100387.48
2023-04-15T07:08:04.363Z,100392.55
2023-04-15T07:09:08.600Z,100388.44
2023-04-15T07:10:13.766Z,100386.13
2023-04-15T07:11:19.381Z,100397.98
2023-04-15T07:12:21.739Z,100384.23
2023-04-15T07:13:26.487Z,100392.02
2023-04-15T07:14:30.134Z,100399.94
2023-04-15T07:15:33.428Z,100400.81
2023-04-15T07:16:36.321Z,100401.38
2023-04-15T07:17:39.811Z,100392.27
2023-04-15T07:18:45.389Z,100389.70
2023-04-15T07:19:49.718Z,100388.22
2023-04-15T07:20:54.257Z,100379.86
2023-04-15T07:21:58.818Z,100381.80
2023-04-15T07:23:03.371Z,100395.05
2023-04-15T07:24:07.490Z,100389.20
2023-04-15T07:25:11.106Z,100393.20
2023-04-15T07:26:15.729Z,100404.23
2023-04-15T07:27:18.928Z,100399.50
2023-04-15T07:28:23.322Z,100395.13
2023-04-15T07:29:26.578Z,100404.78
2023-04-15T07:30:31.557Z,100403.08
2023-04-15T07:31:34.991Z,100400.88
2023-04-15T07:32:37.334Z,100395.52
2023-04-15T07:33:42.175Z,100397.99
2023-04-15T07:34:45.171Z,100399.09
2023-04-15T07:35:51.431Z,100393.17
2023-04-15T07:36:54.784Z,100400.56
2023-04-15T07:37:58.391Z,100408.22
2023-04-15T07:39:03.015Z,100397.44
2023-04-15T07:40:07.815Z,100413.09
2023-04-15T07:41:10.895Z,100402.98
2023-04-15T07:42:14.291Z,100400.86
2023-04-15T07:43:16.543Z,100403.36
2023-04-15T07:44:21.161Z,100404.20
2023-04-15T07:45:24.706Z,100409.20
2023-04-15T07:46:28.117Z,100409.41
2023-04-15T07:47:30.883Z,100405.58
2023-04-15T07:48:36.279Z,100405.66
2023-04-15T07:49:43.839Z,100407.38
2023-04-15T07:50:48.190Z,100405.41
2023-04-15T07:51:51.988Z,100405.49
2023-04-15T07:52:55.314Z,100410.70
2023-04-15T07:53:59.428Z,100413.48
2023-04-15T07:55:02.932Z,100418.56
2023-04-15T07:56:09.153Z,100415.52
2023-04-15T07:57:12.367Z,100417.86
2023-04-15T07:58:16.999Z,100432.56
2023-04-15T07:59:21.929Z,100416.84
2023-04-15T08:00:25.794Z,100421.25
2023-04-15T08:01:33.249Z,100419.55
2023-04-15T08:02:38.964Z,100414.13
2023-04-15T08:03:45.249Z,100414.97
2023-04-15T08:04:54.180Z,100424.55
2023-04-15T08:05:57.341Z,100423.77
2023-04-15T08:06:59.978Z,100419.63
2023-04-15T08:08:05.382Z,100414.73
2023-04-15T08:09:09.995Z,100421.62
2023-04-15T08:10:13.222Z,100417.38
2023-04-15T08:11:17.650Z,100414.73
2023-04-15T08:12:20.111Z,100420.02
2023-04-15T08:13:23.661Z,100419.74
2023-04-15T08:14:29.001Z,100407.25
2023-04-15T08:15:32.496Z,100409.24
2023-04-15T08:16:36.499Z,100406.27
2023-04-15T08:17:38.899Z,100401.42
2023-04-15T08:18:41.766Z,100406.10
2023-04-15T08:19:44.984Z,100405.73
2023-04-15T08:20:49.922Z,100403.09
2023-04-15T08:21:55.103Z,100416.25
2023-04-15T08:22:57.978Z,100405.73
2023-04-15T08:24:01.283Z,100399.69
2023-04-15T08:25:05.141Z,100413.75
2023-04-15T08:26:09.304Z,100407.03
2023-04-15T08:27:11.702Z,100412.25
2023-04-15T08:28:15.193Z,100410.17
2023-04-15T08:29:18.405Z,100418.03
2023-04-15T08:30:22.879Z,100414.20
2023-04-15T08:31:27.319Z,100410.68
2023-04-15T08:32:30.180Z,100407.95
2023-04-15T08:33:32.714Z,100415.02
2023-04-15T08:34:36.131Z,100415.64
2023-04-15T08:35:39.926Z,100412.99
2023-04-15T08:36:42.501Z,100418.89
2023-04-15T08:37:46.002Z,100419.91
2023-04-15T08:38:50.479Z,100413.02
2023-04-15T08:39:55.621Z,100418.55
2023-04-15T08:41:01.044Z,100408.98
2023-04-15T08:42:07.647Z,100403.36
2023-04-15T08:43:12.771Z,100406.01
2023-04-15T08:44:15.702Z,100403.48
2023-04-15T08:45:26.119Z,100409.57
2023-04-15T08:46:30.063Z,100405.55
2023-04-15T08:47:34.314Z,100411.97
2023-04-15T08:48:38.180Z,100406.31
2023-04-15T08:49:43.044Z,100405.00
2023-04-15T08:50:47.176Z,100407.28
2023-04-15T08:51:51.638Z,100413.58
2023-04-15T08:52:56.474Z,100415.09
2023-04-15T08:54:02.535Z,100414.41
2023-04-15T08:55:10.388Z,100417.48
2023-04-15T08:56:17.909Z,100412.76
2023-04-15T08:57:21.584Z,100416.81
2023-04-15T08:58:25.303Z,100413.58
2023-04-15T08:59:29.561Z,100406.34
2023-04-15T09:00:33.254Z,100420.27
2023-04-15T09:01:41.731Z,100414.38
2023-04-15T09:02:45.300Z,100403.61
2023-04-15T09:03:50.759Z,100409.93
2023-04-15T09:04:53.727Z,100414.60
2023-04-15T09:05:59.226Z,100404.72
2023-04-15T09:07:02.782Z,100406.18
2023-04-15T09:08:05.754Z,100411.03
2023-04-15T09:09:08.923Z,100400.20
2023-04-15T09:10:13.321Z,100410.53
2023-04-15T09:11:21.483Z,100412.74
2023-04-15T09:12:27.563Z,100421.53
2023-04-15T09:13:30.018Z,100420.19
2023-04-15T09:14:34.788Z,100418.84
2023-04-15T09:15:40.907Z,100418.73
2023-04-15T09:16:59.324Z,100426.34
2023-04-15T09:18:03.667Z,100410.91
2023-04-15T09:19:25.878Z,100415.25
2023-04-15T09:20:29.390Z,100421.41
2023-04-15T09:21:32.916Z,100417.02
2023-04-15T09:22:36.393Z,100414.33
2023-04-15T09:23:40.432Z,100417.33
2023-04-15T09:24:44.065Z,100417.02
2023-04-15T09:25:46.388Z,100416.52
2023-04-15T09:26:51.358Z,100418.96
2023-04-15T09:27:58.262Z,100420.52
2023-04-15T09:29:09.862Z,100426.91
2023-04-15T09:30:13.073Z,100415.22
2023-04-15T09:31:17.623Z,100422.30
2023-04-15T09:32:23.957Z,100422.02
2023-04-15T09:33:29.634Z,100425.30
2023-04-15T09:34:36.781Z,100425.31
2023-04-15T09:35:43.223Z,100418.80
2023-04-15T09:36:51.747Z,100428.70
2023-04-15T09:37:57.420Z,100423.40
2023-04-15T09:39:01.078Z,100424.16
2023-04-15T09:40:04.975Z,100423.15
2023-04-15T09:41:09.041Z,100423.60
2023-04-15T09:42:11.970Z,100431.02
2023-04-15T09:43:17.303Z,100423.40
2023-04-15T09:44:23.669Z,100429.84
2023-04-15T09:45:29.358Z,100435.38
2023-04-15T09:46:47.599Z,100426.91
2023-04-15T09:47:54.321Z,100432.04
2023-04-15T09:49:10.389Z,100442.22
2023-04-15T09:50:16.565Z,100434.52
2023-04-15T09:51:22.972Z,100438.36
2023-04-15T09:52:27.722Z,100438.55
2023-04-15T09:53:40.186Z,100437.94
2023-04-15T09:54:45.463Z,100436.45
2023-04-15T09:55:59.413Z,100432.12
2023-04-15T09:57:07.451Z,100424.80
2023-04-15T09:58:12.691Z,100433.34
2023-04-15T09:59:15.987Z,100422.27
2023-04-15T10:00:19.245Z,100429.39
2023-04-15T10:01:24.821Z,100424.95
2023-04-15T10:02:30.714Z,100426.91
2023-04-15T10:03:36.699Z,100423.77
2023-04-15T10:04:42.307Z,100423.77
2023-04-15T10:05:46.628Z,100428.98
2023-04-15T10:06:50.256Z,100435.77
2023-04-15T10:07:54.054Z,100424.55
2023-04-15T10:08:57.977Z,100433.67
2023-04-15T10:10:04.230Z,100430.53
2023-04-15T10:11:08.530Z,100427.02
2023-04-15T10:12:11.731Z,100426.75
2023-04-15T10:13:17.762Z,100425.39
2023-04-15T10:14:21.669Z,100436.07
2023-04-15T10:15:25.693Z,100429.92
2023-04-15T10:16:29.825Z,100437.69
2023-04-15T10:17:37.858Z,100428.70
2023-04-15T10:18:44.196Z,100430.77
2023-04-15T10:19:47.744Z,100442.70
2023-04-15T10:20:51.353Z,100444.86
2023-04-15T10:21:56.156Z,100442.80
2023-04-15T10:23:02.053Z,100440.27
2023-04-15T10:24:05.745Z,100448.86
2023-04-15T10:25:21.849Z,100447.92
2023-04-15T10:26:27.521Z,100451.59
2023-04-15T10:27:30.669Z,100454.51
2023-04-15T10:28:34.595Z,100460.87
2023-04-15T10:29:41.819Z,100454.66
2023-04-15T10:30:45.413Z,100450.30
2023-04-15T10:31:49.892Z,100442.92
2023-04-15T10:32:54.025Z,100449.28
2023-04-15T10:33:58.804Z,100453.05
2023-04-15T10:35:02.945Z,100443.65
2023-04-15T10:36:07.166Z,100433.98
2023-04-15T10:37:12.468Z,100444.41
2023-04-15T10:38:38.191Z,100436.38
2023-04-15T10:39:43.600Z,100439.45
2023-04-15T10:40:47.930Z,100441.33
2023-04-15T10:41:56.820Z,100440.48
2023-04-15T10:43:02.778Z,100440.61
2023-04-15T10:44:07.112Z,100445.80
2023-04-15T10:45:12.329Z,100439.12
2023-04-15T10:46:17.783Z,100440.75
2023-04-15T10:47:21.736Z,100441.69
2023-04-15T10:48:24.675Z,100446.56
2023-04-15T10:49:36.863Z,100446.49
2023-04-15T10:50:40.243Z,100449.47
2023-04-15T10:51:47.738Z,100442.20
2023-04-15T10:52:51.686Z,100450.55
2023-04-15T10:53:56.001Z,100454.05
2023-04-15T10:55:01.893Z,100450.92
2023-04-15T10:56:05.513Z,100460.81
2023-04-15T10:57:10.262Z,100457.70
2023-04-15T10:58:16.112Z,100461.59
2023-04-15T10:59:21.358Z,100463.11
2023-04-15T11:00:28.516Z,100461.94
2023-04-15T11:01:50.803Z,100458.43
2023-04-15T11:03:00.975Z,100460.75
2023-04-15T11:04:05.588Z,100460.39
2023-04-15T11:05:10.816Z,100463.89
2023-04-15T11:06:13.626Z,100459.89
2023-04-15T11:07:17.033Z,100464.15
2023-04-15T11:08:21.059Z,100460.36
2023-04-15T11:09:33.843Z,100471.09
2023-04-15T11:10:38.853Z,100459.21
2023-04-15T11:12:00.495Z,100453.69
2023-04-15T11:13:05.165Z,100461.05
2023-04-15T11:14:10.411Z,100452.38
2023-04-15T11:15:32.517Z,100446.77
2023-04-15T11:16:38.073Z,100446.09
2023-04-15T11:17:41.758Z,100445.86
2023-04-15T11:18:57.333Z,100445.61
2023-04-15T11:20:00.778Z,100443.30
2023-04-15T11:21:06.411Z,100439.42
2023-04-15T11:22:11.300Z,100442.33
2023-04-15T11:23:16.139Z,100444.59
2023-04-15T11:24:21.437Z,100440.61
2023-04-15T11:25:26.509Z,100437.80
2023-04-15T11:26:29.871Z,100433.61
2023-04-15T11:27:32.789Z,100455.14
2023-04-15T11:28:39.785Z,100449.45
2023-04-15T11:29:42.836Z,100450.61
2023-04-15T11:30:45.493Z,100440.95
2023-04-15T11:31:50.965Z,100454.89
2023-04-15T11:32:55.509Z,100452.67
2023-04-15T11:34:00.920Z,100446.88
2023-04-15T11:35:03.395Z,100459.20
2023-04-15T11:36:06.375Z,100461.16
2023-04-15T11:37:11.331Z,100458.50
2023-04-15T11:38:16.066Z,100456.70
2023-04-15T11:39:20.327Z,100453.50
2023-04-15T11:40:29.377Z,100454.16
2023-04-15T11:41:34.264Z,100462.70
2023-04-15T11:42:49.087Z,100464.91
2023-04-15T11:43:43.331Z,100476.19
2023-04-15T11:44:46.382Z,100468.33
2023-04-15T11:45:52.807Z,100462.70
2023-04-15T11:46:56.248Z,100464.17
2023-04-15T11:48:07.909Z,100461.16
2023-04-15T11:49:11.832Z,100463.12
2023-04-15T11:50:23.108Z,100458.11
2023-04-15T11:51:26.265Z,100467.92
2023-04-15T11:52:28.604Z,100455.78
2023-04-15T11:53:46.533Z,100461.41
2023-04-15T11:54:49.962Z,100452.89
2023-04-15T11:56:58.404Z,100436.90
2023-04-15T11:58:17.345Z,100436.72
2023-04-15T11:59:21.290Z,100441.09
2023-04-15T12:00:25.814Z,100440.13
2023-04-15T12:01:31.959Z,100443.27
2023-04-15T12:02:37.542Z,100445.31
2023-04-15T12:03:45.530Z,100442.27
2023-04-15T12:04:48.644Z,100446.80
2023-04-15T12:06:11.135Z,100445.25
2023-04-15T12:07:14.529Z,100449.28
2023-04-15T12:08:17.949Z,100444.72
2023-04-15T12:09:23.061Z,100442.27
2023-04-15T12:10:28.101Z,100451.09
2023-04-15T12:11:32.677Z,100438.44
2023-04-15T12:12:36.251Z,100445.36
2023-04-15T12:13:39.653Z,100440.83
2023-04-15T12:14:42.859Z,100448.86
2023-04-15T12:15:46.600Z,100456.64
2023-04-15T12:16:52.686Z,100445.11
2023-04-15T12:17:56.830Z,100441.06
2023-04-15T12:19:02.103Z,100434.06
2023-04-15T12:20:06.214Z,100437.45